< < Back
Terminal Aerodrome Forecast


Current Version              Previous Versions:   1  2  3  4  5  6  7  8  9  

Terminal Aerodrome Forecast

415
FTUS44 KOHX 290500
TAFCSV
TAF
KCSV 290523Z 2906/3006 01004KT P6SM SCT250
     FM291500 17008G15KT P6SM SCT250
     FM292300 19010G16KT P6SM BKN050=

Latest METAR

807
SAUS70 KWBC 291900 RRA
MTRCSV
METAR KCSV 291853Z AUTO 18010G15KT 10SM CLR 11/M12 A3025 RMK AO2 SLP250
T01111122 $


USA.gov is the U.S. government's official web portal to all federal, state and local government web resources and services.